createdAt,value
2022-10-20T00:00:53.515Z,17.48
2022-10-20T00:03:19.794Z,16.17
2022-10-20T00:05:46.072Z,15.38
2022-10-20T00:08:12.363Z,14.88
2022-10-20T00:10:38.626Z,14.50
2022-10-20T00:13:04.903Z,13.80
2022-10-20T00:15:31.193Z,14.48
2022-10-20T00:17:57.455Z,13.30
2022-10-20T00:20:23.726Z,13.88
2022-10-20T00:22:50.000Z,13.18
2022-10-20T00:25:16.394Z,11.65
2022-10-20T00:27:42.671Z,11.35
2022-10-20T00:30:09.478Z,10.50
2022-10-20T00:32:36.174Z,11.20
2022-10-20T00:35:02.962Z,11.88
2022-10-20T00:37:29.226Z,10.38
2022-10-20T00:39:55.498Z,10.40
2022-10-20T00:42:21.822Z,10.43
2022-10-20T00:44:50.008Z,10.82
2022-10-20T00:47:17.785Z,11.45
2022-10-20T00:49:44.570Z,8.68
2022-10-20T00:52:11.122Z,9.70
2022-10-20T00:54:37.844Z,10.25
2022-10-20T00:57:04.543Z,11.13
2022-10-20T00:59:33.133Z,11.30
2022-10-20T01:01:59.967Z,9.82
2022-10-20T01:04:27.926Z,10.18
2022-10-20T01:06:54.242Z,10.27
2022-10-20T01:09:20.593Z,10.60
2022-10-20T01:11:46.840Z,11.48
2022-10-20T01:14:22.389Z,8.70
2022-10-20T01:16:58.527Z,9.10
2022-10-20T01:19:45.804Z,9.60
2022-10-20T01:22:28.877Z,8.70
2022-10-20T01:25:06.918Z,8.07
2022-10-20T01:27:34.871Z,7.45
2022-10-20T01:30:12.209Z,7.55
2022-10-20T01:32:56.526Z,8.32
2022-10-20T01:35:22.799Z,6.93
2022-10-20T01:37:53.370Z,6.20
2022-10-20T01:40:19.799Z,5.60
2022-10-20T01:42:47.636Z,6.30
2022-10-20T01:45:15.181Z,5.40
2022-10-20T01:47:42.454Z,5.50
2022-10-20T01:50:10.164Z,5.80
2022-10-20T01:52:36.987Z,5.25
2022-10-20T01:55:10.956Z,6.43
2022-10-20T01:57:52.579Z,5.90
2022-10-20T02:00:18.923Z,6.18
2022-10-20T02:02:55.851Z,6.10
2022-10-20T02:05:37.398Z,6.18
2022-10-20T02:08:16.210Z,6.10
2022-10-20T02:10:50.321Z,6.15
2022-10-20T02:13:18.745Z,5.65
2022-10-20T02:15:47.035Z,6.95
2022-10-20T02:18:15.702Z,5.97
2022-10-20T02:20:43.272Z,7.05
2022-10-20T02:23:09.945Z,5.93
2022-10-20T02:25:37.971Z,7.22
2022-10-20T02:28:05.226Z,7.30
2022-10-20T02:30:32.020Z,8.65
2022-10-20T02:32:58.297Z,6.63
2022-10-20T02:35:29.620Z,7.78
2022-10-20T02:37:56.634Z,7.22
2022-10-20T02:40:23.137Z,8.75
2022-10-20T02:42:49.474Z,8.15
2022-10-20T02:45:15.974Z,9.60
2022-10-20T02:47:42.298Z,8.15
2022-10-20T02:50:08.803Z,8.25
2022-10-20T02:52:35.245Z,7.85
2022-10-20T02:55:01.538Z,9.18
2022-10-20T02:57:27.885Z,8.13
2022-10-20T02:59:54.250Z,8.13
2022-10-20T03:02:20.589Z,9.70
2022-10-20T03:04:46.939Z,9.27
2022-10-20T03:07:13.428Z,8.20
2022-10-20T03:09:40.000Z,8.10
2022-10-20T03:12:06.278Z,9.70
2022-10-20T03:14:32.563Z,9.48
2022-10-20T03:16:58.824Z,9.10
2022-10-20T03:19:25.154Z,9.25
2022-10-20T03:21:51.426Z,10.60
2022-10-20T03:24:18.530Z,10.02
2022-10-20T03:26:44.784Z,9.90
2022-10-20T03:29:11.061Z,9.85
2022-10-20T03:31:37.400Z,9.13
2022-10-20T03:34:03.750Z,9.68
2022-10-20T03:36:30.013Z,10.55
2022-10-20T03:38:56.285Z,10.00
2022-10-20T03:41:22.598Z,10.65
2022-10-20T03:43:48.878Z,10.15
2022-10-20T03:46:15.141Z,9.15
2022-10-20T03:48:41.706Z,11.10
2022-10-20T03:51:09.318Z,11.15
2022-10-20T03:53:35.823Z,10.05
2022-10-20T03:56:05.753Z,10.57
2022-10-20T03:58:32.055Z,10.82
2022-10-20T04:00:58.347Z,10.77
2022-10-20T04:03:24.836Z,11.35
2022-10-20T04:05:51.119Z,11.15
2022-10-20T04:08:17.388Z,11.13
2022-10-20T04:10:43.684Z,12.07
2022-10-20T04:13:09.967Z,11.73
2022-10-20T04:15:36.266Z,11.82
2022-10-20T04:18:02.541Z,10.70
2022-10-20T04:20:28.827Z,12.63
2022-10-20T04:22:55.108Z,11.63
2022-10-20T04:25:21.512Z,10.45
2022-10-20T04:27:47.773Z,11.98
2022-10-20T04:30:14.049Z,10.38
2022-10-20T04:32:40.410Z,10.73
2022-10-20T04:35:07.083Z,11.00
2022-10-20T04:37:33.928Z,11.85
2022-10-20T04:40:00.604Z,11.43
2022-10-20T04:42:26.913Z,10.75
2022-10-20T04:44:53.251Z,11.10
2022-10-20T04:47:19.579Z,11.45
2022-10-20T04:49:45.904Z,10.93
2022-10-20T04:52:12.174Z,11.00
2022-10-20T04:54:38.447Z,11.27
2022-10-20T04:57:06.152Z,12.00
2022-10-20T04:59:32.519Z,12.25
2022-10-20T05:01:58.823Z,11.13
2022-10-20T05:04:25.251Z,10.95
2022-10-20T05:06:51.523Z,11.98
2022-10-20T05:09:17.900Z,11.85
2022-10-20T05:11:44.167Z,11.80
2022-10-20T05:14:10.576Z,13.57
2022-10-20T05:16:36.899Z,12.07
2022-10-20T05:19:03.304Z,16.65
2022-10-20T05:21:30.840Z,12.13
2022-10-20T05:24:01.389Z,13.43
2022-10-20T05:26:28.394Z,13.88
2022-10-20T05:28:54.747Z,14.25
2022-10-20T05:31:21.810Z,14.43
2022-10-20T05:33:49.805Z,13.32
2022-10-20T05:36:19.465Z,15.60
2022-10-20T05:38:48.063Z,14.07
2022-10-20T05:41:16.074Z,11.75
2022-10-20T05:43:42.475Z,13.15
2022-10-20T05:46:08.989Z,15.63
2022-10-20T05:48:39.394Z,13.43
2022-10-20T05:51:10.725Z,13.13
2022-10-20T05:53:40.166Z,14.88
2022-10-20T05:56:07.787Z,14.77
2022-10-20T05:58:34.227Z,13.18
2022-10-20T06:01:11.348Z,13.05
2022-10-20T06:03:37.739Z,13.95
2022-10-20T06:06:04.277Z,13.25
2022-10-20T06:08:31.901Z,14.07
2022-10-20T06:11:02.935Z,13.85
2022-10-20T06:13:30.375Z,13.27
2022-10-20T06:16:00.867Z,14.80
2022-10-20T06:21:00.951Z,16.58
2022-10-20T06:23:27.236Z,13.20
2022-10-20T06:25:53.620Z,13.25
2022-10-20T06:28:19.887Z,14.80
2022-10-20T06:30:46.188Z,12.77
2022-10-20T06:33:14.843Z,13.55
2022-10-20T06:35:41.253Z,14.18
2022-10-20T06:38:07.550Z,12.70
2022-10-20T06:40:33.921Z,13.98
2022-10-20T06:43:00.214Z,13.18
2022-10-20T06:45:26.561Z,14.60
2022-10-20T06:47:52.837Z,13.63
2022-10-20T06:50:19.117Z,13.38
2022-10-20T06:52:45.403Z,12.40
2022-10-20T06:55:11.814Z,13.63
2022-10-20T06:57:38.084Z,15.75
2022-10-20T07:00:04.981Z,12.15
2022-10-20T07:02:31.250Z,12.52
2022-10-20T07:04:57.519Z,12.35
2022-10-20T07:07:23.810Z,11.32
2022-10-20T07:09:50.106Z,11.45
2022-10-20T07:12:16.390Z,12.02
2022-10-20T07:14:42.675Z,10.68
2022-10-20T07:17:08.954Z,10.35
2022-10-20T07:19:35.231Z,10.45
2022-10-20T07:22:01.497Z,9.82
2022-10-20T07:24:28.945Z,9.55
2022-10-20T07:26:55.275Z,10.73
2022-10-20T07:29:21.663Z,9.82
2022-10-20T07:31:48.083Z,9.43
2022-10-20T07:34:30.677Z,11.07
2022-10-20T07:36:57.470Z,10.15
2022-10-20T07:39:24.158Z,8.38
2022-10-20T07:41:50.985Z,11.50
2022-10-20T07:44:17.428Z,8.70
2022-10-20T07:46:44.071Z,10.90
2022-10-20T07:49:42.985Z,8.60
2022-10-20T07:51:56.689Z,9.43
2022-10-20T07:54:22.984Z,9.43
2022-10-20T07:56:49.575Z,8.38
2022-10-20T07:59:15.949Z,8.77
2022-10-20T08:01:42.348Z,8.40
2022-10-20T08:04:08.647Z,8.80
2022-10-20T08:06:34.922Z,7.30
2022-10-20T08:09:01.456Z,9.10
2022-10-20T08:11:27.788Z,7.82
2022-10-20T08:13:54.056Z,9.50
2022-10-20T08:16:28.859Z,8.82
2022-10-20T08:21:26.556Z,8.10
2022-10-20T08:23:52.834Z,7.70
2022-10-20T08:26:21.668Z,8.43
2022-10-20T08:28:51.677Z,7.68
2022-10-20T08:31:18.145Z,8.07
2022-10-20T08:33:46.814Z,7.60
2022-10-20T08:36:16.384Z,8.32
2022-10-20T08:38:43.509Z,9.77
2022-10-20T08:41:16.178Z,8.85
2022-10-20T08:43:42.716Z,7.82
2022-10-20T08:46:16.255Z,9.35
2022-10-20T08:48:43.482Z,7.43
2022-10-20T08:51:15.394Z,7.95
2022-10-20T08:53:41.672Z,7.63
2022-10-20T08:56:11.636Z,7.10
2022-10-20T08:58:41.155Z,6.35
2022-10-20T09:01:14.246Z,7.03
2022-10-20T09:03:41.202Z,6.72
2022-10-20T09:06:14.127Z,7.05
2022-10-20T09:08:41.466Z,6.68
2022-10-20T09:11:08.979Z,6.32
2022-10-20T09:13:36.759Z,5.75
2022-10-20T09:16:06.062Z,6.00
2022-10-20T09:18:32.937Z,6.80
2022-10-20T09:21:00.960Z,7.13
2022-10-20T09:23:41.181Z,5.68
2022-10-20T09:26:24.796Z,5.97
2022-10-20T09:29:12.912Z,6.40
2022-10-20T09:32:11.424Z,6.78
2022-10-20T09:34:46.492Z,6.50
2022-10-20T09:37:13.742Z,5.90
2022-10-20T09:39:39.998Z,6.38
2022-10-20T09:42:12.267Z,6.07
2022-10-20T09:44:58.851Z,5.22
2022-10-20T09:47:26.595Z,5.63
2022-10-20T09:50:01.061Z,6.80
2022-10-20T09:52:34.981Z,5.95
2022-10-20T09:55:03.425Z,5.18
2022-10-20T09:57:30.629Z,5.63
2022-10-20T10:00:04.494Z,5.25
2022-10-20T10:02:39.511Z,5.20
2022-10-20T10:05:13.507Z,6.05
2022-10-20T10:07:39.841Z,5.32
2022-10-20T10:10:08.660Z,5.22
2022-10-20T10:12:35.986Z,4.85
2022-10-20T10:15:04.868Z,4.65
2022-10-20T10:17:36.057Z,5.03
2022-10-20T10:20:07.744Z,5.38
2022-10-20T10:22:35.247Z,6.13
2022-10-20T10:25:02.457Z,4.55
2022-10-20T10:27:30.239Z,5.22
2022-10-20T10:30:16.489Z,4.95
2022-10-20T10:32:46.475Z,4.28
2022-10-20T10:35:27.206Z,4.75
2022-10-20T10:37:53.842Z,4.07
2022-10-20T10:40:21.617Z,4.30
2022-10-20T10:42:56.951Z,3.80
2022-10-20T10:45:38.454Z,4.50
2022-10-20T10:48:04.695Z,4.40
2022-10-20T10:50:35.393Z,3.50
2022-10-20T10:53:07.509Z,3.80
2022-10-20T10:55:48.211Z,4.00
2022-10-20T10:58:18.224Z,3.95
2022-10-20T11:00:44.543Z,3.50
2022-10-20T11:03:18.887Z,4.88
2022-10-20T11:05:56.183Z,3.38
2022-10-20T11:08:42.768Z,3.20
2022-10-20T11:11:09.042Z,3.38
2022-10-20T11:13:54.142Z,3.17
2022-10-20T11:16:28.262Z,2.95
2022-10-20T11:19:00.160Z,3.05
2022-10-20T11:21:36.144Z,2.80
2022-10-20T11:24:21.087Z,3.50
2022-10-20T11:26:50.346Z,3.00
2022-10-20T11:29:20.367Z,2.53
2022-10-20T11:31:46.776Z,2.78
2022-10-20T11:34:33.639Z,3.42
2022-10-20T11:37:07.527Z,3.22
2022-10-20T11:39:42.930Z,3.10
2022-10-20T11:42:23.604Z,3.00
2022-10-20T11:44:51.470Z,2.85
2022-10-20T11:47:21.359Z,2.90
2022-10-20T11:49:47.732Z,3.97
2022-10-20T11:52:32.902Z,3.60
2022-10-20T11:55:13.370Z,2.92
2022-10-20T11:57:42.675Z,3.90
2022-10-20T12:00:31.379Z,3.13
2022-10-20T12:03:09.561Z,3.33
2022-10-20T12:05:42.129Z,3.88
2022-10-20T12:08:30.769Z,3.10
2022-10-20T12:11:15.946Z,4.32
2022-10-20T12:14:00.542Z,3.53
2022-10-20T12:16:45.742Z,3.67
2022-10-20T12:19:17.152Z,3.90
2022-10-20T12:21:58.752Z,3.88
2022-10-20T12:25:03.388Z,3.95
2022-10-20T12:27:30.093Z,4.30
2022-10-20T12:30:15.306Z,4.47
2022-10-20T12:32:55.378Z,4.32
2022-10-20T12:37:55.793Z,4.05
2022-10-20T12:40:28.139Z,4.18
2022-10-20T12:42:55.253Z,4.20
2022-10-20T12:45:39.390Z,4.40
2022-10-20T12:48:06.682Z,4.75
2022-10-20T12:50:44.619Z,3.35
2022-10-20T12:53:13.574Z,3.90
2022-10-20T12:55:42.065Z,3.72
2022-10-20T12:58:17.954Z,3.80
2022-10-20T13:00:47.341Z,3.35
2022-10-20T13:03:31.912Z,4.60
2022-10-20T13:06:01.748Z,3.50
2022-10-20T13:08:32.471Z,4.72
2022-10-20T13:11:17.267Z,3.55
2022-10-20T13:13:51.019Z,3.00
2022-10-20T13:16:19.480Z,3.90
2022-10-20T13:18:46.861Z,4.03
2022-10-20T13:21:16.161Z,4.05
2022-10-20T13:23:42.424Z,3.58
2022-10-20T13:26:22.329Z,4.07
2022-10-20T13:28:49.649Z,3.58
2022-10-20T13:31:36.770Z,4.70
2022-10-20T13:34:05.965Z,4.38
2022-10-20T13:36:51.505Z,3.00
2022-10-20T13:39:21.944Z,3.53
2022-10-20T13:42:14.425Z,3.47
2022-10-20T13:44:59.618Z,3.80
2022-10-20T13:47:45.865Z,4.45
2022-10-20T13:50:13.826Z,3.70
2022-10-20T13:52:52.707Z,4.35
2022-10-20T13:55:21.289Z,3.50
2022-10-20T13:57:55.351Z,3.55
2022-10-20T14:00:24.270Z,4.07
2022-10-20T14:02:55.071Z,3.42
2022-10-20T14:05:22.209Z,3.88
2022-10-20T14:07:50.622Z,3.75
2022-10-20T14:10:30.232Z,4.95
2022-10-20T14:12:56.877Z,5.57
2022-10-20T14:15:26.414Z,6.22
2022-10-20T14:17:56.863Z,5.13
2022-10-20T14:20:23.502Z,5.88
2022-10-20T14:22:50.815Z,4.47
2022-10-20T14:25:17.423Z,5.20
2022-10-20T14:27:45.034Z,4.72
2022-10-20T14:30:15.189Z,5.20
2022-10-20T14:35:18.632Z,4.80
2022-10-20T14:37:47.029Z,5.05
2022-10-20T14:40:21.393Z,5.22
2022-10-20T14:42:47.672Z,3.85
2022-10-20T14:45:21.743Z,4.60
2022-10-20T14:47:48.587Z,3.58
2022-10-20T14:50:23.447Z,4.60
2022-10-20T14:52:53.836Z,4.38
2022-10-20T14:55:27.807Z,10.23
2022-10-20T14:57:54.372Z,9.13
2022-10-20T15:00:23.893Z,11.40
2022-10-20T15:02:56.344Z,14.73
2022-10-20T15:05:32.095Z,11.90
2022-10-20T15:08:07.400Z,6.32
2022-10-20T15:10:33.696Z,5.35
2022-10-20T15:13:01.157Z,5.63
2022-10-20T15:15:29.091Z,4.80
2022-10-20T15:18:04.578Z,4.28
2022-10-20T15:20:33.890Z,5.75
2022-10-20T15:23:06.237Z,5.50
2022-10-20T15:25:36.790Z,3.83
2022-10-20T15:28:03.162Z,4.10
2022-10-20T15:30:29.746Z,3.97
2022-10-20T15:32:56.018Z,4.13
2022-10-20T15:35:24.329Z,4.55
2022-10-20T15:37:52.432Z,4.68
2022-10-20T15:40:19.449Z,4.38
2022-10-20T15:42:45.706Z,3.95
2022-10-20T15:45:32.296Z,4.80
2022-10-20T15:47:58.562Z,6.97
2022-10-20T15:50:25.027Z,5.10
2022-10-20T15:52:51.350Z,4.95
2022-10-20T15:55:22.141Z,4.28
2022-10-20T15:57:49.773Z,5.28
2022-10-20T16:00:16.116Z,5.63
2022-10-20T16:02:42.375Z,5.70
2022-10-20T16:05:08.763Z,5.13
2022-10-20T16:07:35.398Z,5.82
2022-10-20T16:10:01.901Z,5.78
2022-10-20T16:12:28.154Z,5.80
2022-10-20T16:14:54.693Z,5.30
2022-10-20T16:17:20.955Z,6.53
2022-10-20T16:19:47.246Z,6.55
2022-10-20T16:22:13.536Z,6.97
2022-10-20T16:24:39.813Z,6.82
2022-10-20T16:27:06.392Z,8.20
2022-10-20T16:29:32.871Z,8.18
2022-10-20T16:31:59.868Z,7.50
2022-10-20T16:34:29.265Z,7.25
2022-10-20T16:36:55.547Z,7.25
2022-10-20T16:39:21.877Z,7.38
2022-10-20T16:41:48.169Z,7.18
2022-10-20T16:44:14.452Z,7.05
2022-10-20T16:46:40.902Z,7.97
2022-10-20T16:49:07.191Z,9.00
2022-10-20T16:51:33.476Z,8.05
2022-10-20T16:54:03.229Z,9.18
2022-10-20T16:58:56.091Z,6.85
2022-10-20T17:01:22.765Z,7.65
2022-10-20T17:03:50.120Z,8.65
2022-10-20T17:06:18.049Z,8.52
2022-10-20T17:08:44.518Z,8.70
2022-10-20T17:11:12.711Z,8.73
2022-10-20T17:13:39.423Z,7.65
2022-10-20T17:16:07.054Z,8.65
2022-10-20T17:18:33.529Z,8.55
2022-10-20T17:20:59.811Z,9.60
2022-10-20T17:23:26.589Z,10.10
2022-10-20T17:25:53.343Z,8.63
2022-10-20T17:28:19.637Z,9.38
2022-10-20T17:30:46.846Z,11.25
2022-10-20T17:33:13.274Z,9.98
2022-10-20T17:35:39.739Z,10.25
2022-10-20T17:38:06.336Z,10.90
2022-10-20T17:40:36.125Z,10.63
2022-10-20T17:43:02.469Z,10.55
2022-10-20T17:45:28.739Z,9.88
2022-10-20T17:47:55.539Z,11.07
2022-10-20T17:50:21.821Z,11.85
2022-10-20T17:52:48.219Z,10.43
2022-10-20T17:55:14.505Z,11.35
2022-10-20T17:57:40.978Z,11.90
2022-10-20T18:00:12.937Z,12.20
2022-10-20T18:02:45.636Z,10.88
2022-10-20T18:05:11.912Z,11.77
2022-10-20T18:07:38.191Z,12.60
2022-10-20T18:10:04.692Z,11.20
2022-10-20T18:12:30.953Z,11.18
2022-10-20T18:14:57.254Z,12.48
2022-10-20T18:17:23.717Z,11.48
2022-10-20T18:19:50.831Z,11.68
2022-10-20T18:22:17.127Z,12.65
2022-10-20T18:24:43.507Z,12.85
2022-10-20T18:27:09.987Z,13.02
2022-10-20T18:29:36.265Z,12.10
2022-10-20T18:32:02.710Z,12.32
2022-10-20T18:34:28.993Z,12.57
2022-10-20T18:36:56.125Z,12.52
2022-10-20T18:39:22.586Z,11.15
2022-10-20T18:41:52.417Z,13.38
2022-10-20T18:44:19.143Z,11.45
2022-10-20T18:46:46.462Z,11.90
2022-10-20T18:49:13.872Z,12.43
2022-10-20T18:51:40.197Z,13.02
2022-10-20T18:54:07.959Z,13.02
2022-10-20T18:56:35.231Z,13.98
2022-10-20T18:59:03.240Z,13.45
2022-10-20T19:01:33.754Z,13.73
2022-10-20T19:04:00.609Z,12.98
2022-10-20T19:06:31.352Z,13.43
2022-10-20T19:09:01.936Z,13.45
2022-10-20T19:11:29.417Z,14.60
2022-10-20T19:13:56.155Z,17.17
2022-10-20T19:16:24.691Z,14.35
2022-10-20T19:18:51.876Z,14.65
2022-10-20T19:21:18.811Z,14.60
2022-10-20T19:23:46.544Z,14.38
2022-10-20T19:26:17.839Z,14.68
2022-10-20T19:28:46.351Z,14.75
2022-10-20T19:31:20.903Z,16.23
2022-10-20T19:33:49.348Z,15.20
2022-10-20T19:36:15.640Z,14.38
2022-10-20T19:38:41.930Z,15.32
2022-10-20T19:41:08.463Z,15.25
2022-10-20T19:43:35.734Z,16.83
2022-10-20T19:46:02.367Z,17.25
2022-10-20T19:48:28.703Z,17.38
2022-10-20T19:50:55.000Z,16.83
2022-10-20T19:53:21.719Z,16.88
2022-10-20T19:55:48.967Z,17.42
2022-10-20T19:58:15.704Z,15.60
2022-10-20T20:00:46.093Z,15.35
2022-10-20T20:03:12.843Z,16.60
2022-10-20T20:05:39.310Z,16.25
2022-10-20T20:08:05.837Z,15.80
2022-10-20T20:10:32.199Z,17.23
2022-10-20T20:12:58.489Z,16.85
2022-10-20T20:15:24.918Z,16.35
2022-10-20T20:17:51.239Z,16.55
2022-10-20T20:20:17.744Z,15.10
2022-10-20T20:22:44.003Z,16.83
2022-10-20T20:25:10.272Z,16.40
2022-10-20T20:27:36.792Z,17.92
2022-10-20T20:30:04.255Z,15.48
2022-10-20T20:32:32.052Z,15.77
2022-10-20T20:34:59.003Z,16.48
2022-10-20T20:37:25.349Z,15.55
2022-10-20T20:39:51.614Z,16.83
2022-10-20T20:42:17.894Z,15.73
2022-10-20T20:44:44.198Z,16.08
2022-10-20T20:47:10.489Z,16.23
2022-10-20T20:49:36.758Z,15.07
2022-10-20T20:52:03.100Z,15.50
2022-10-20T20:54:32.215Z,14.27
2022-10-20T20:56:59.406Z,15.20
2022-10-20T20:59:25.731Z,15.90
2022-10-20T21:01:52.003Z,16.27
2022-10-20T21:04:18.284Z,14.30
2022-10-20T21:07:03.140Z,15.23
2022-10-20T21:09:29.868Z,13.93
2022-10-20T21:11:56.197Z,15.27
2022-10-20T21:14:22.531Z,14.40
2022-10-20T21:16:48.809Z,13.40
2022-10-20T21:19:15.194Z,15.57
2022-10-20T21:21:44.218Z,15.23
2022-10-20T21:24:11.460Z,15.40
2022-10-20T21:26:37.790Z,16.30
2022-10-20T21:29:04.308Z,16.65
2022-10-20T21:31:31.270Z,14.73
2022-10-20T21:34:01.436Z,17.02
2022-10-20T21:38:54.243Z,16.02
2022-10-20T21:41:24.796Z,18.08
2022-10-20T21:43:52.130Z,17.65
2022-10-20T21:46:22.858Z,17.25
2022-10-20T21:48:50.704Z,17.83
2022-10-20T21:51:22.124Z,17.83
2022-10-20T21:53:48.390Z,18.85
2022-10-20T21:56:15.428Z,17.20
2022-10-20T21:58:42.338Z,16.83
2022-10-20T22:01:15.686Z,17.17
2022-10-20T22:03:42.730Z,17.65
2022-10-20T22:06:09.663Z,16.80
2022-10-20T22:08:39.953Z,15.32
2022-10-20T22:11:07.494Z,14.18
2022-10-20T22:13:33.999Z,14.45
2022-10-20T22:16:00.286Z,13.57
2022-10-20T22:18:27.015Z,16.10
2022-10-20T22:20:53.295Z,15.50
2022-10-20T22:23:19.757Z,16.67
2022-10-20T22:25:46.118Z,16.80
2022-10-20T22:28:12.384Z,17.23
2022-10-20T22:30:38.670Z,16.73
2022-10-20T22:33:04.992Z,15.90
2022-10-20T22:35:31.374Z,16.83
2022-10-20T22:37:57.655Z,17.48
2022-10-20T22:40:24.430Z,17.20
2022-10-20T22:42:50.749Z,17.65
2022-10-20T22:45:17.132Z,17.15
2022-10-20T22:47:43.434Z,16.65
2022-10-20T22:50:09.709Z,16.45
2022-10-20T22:52:36.368Z,15.88
2022-10-20T22:55:02.864Z,15.73
2022-10-20T22:57:29.184Z,16.50
2022-10-20T22:59:55.732Z,16.15
2022-10-20T23:02:22.063Z,14.90
2022-10-20T23:04:48.326Z,15.80
2022-10-20T23:07:14.608Z,13.43
2022-10-20T23:09:40.939Z,15.30
2022-10-20T23:12:07.228Z,17.02
2022-10-20T23:14:33.494Z,15.43
2022-10-20T23:16:59.774Z,14.90
2022-10-20T23:19:26.029Z,15.05
2022-10-20T23:21:52.301Z,15.48
2022-10-20T23:24:18.584Z,15.57
2022-10-20T23:26:44.863Z,16.05
2022-10-20T23:29:11.187Z,14.98
2022-10-20T23:31:37.479Z,15.85
2022-10-20T23:34:03.747Z,13.77
2022-10-20T23:36:30.017Z,15.57
2022-10-20T23:38:56.274Z,15.52
2022-10-20T23:41:22.547Z,13.90
2022-10-20T23:43:48.859Z,13.65
2022-10-20T23:46:15.216Z,15.48
2022-10-20T23:48:41.483Z,17.23
2022-10-20T23:51:08.251Z,15.55
2022-10-20T23:53:34.877Z,14.88
2022-10-20T23:56:01.153Z,15.90
2022-10-20T23:58:27.445Z,15.40
